Time;durP1;ratioP1;P1;durP2;ratioP2;P2;SDS_P1;SDS_P2;PMS_P1;PMS_P2;Temp;Humidity;BMP_temperature;BMP_pressure;BME280_temperature;BME280_humidity;BME280_pressure;Samples;Min_cycle;Max_cycle;Signal;HPM_P1;HPM_P2
2022/01/06 00:00:14;;;;;;;2.72;1.38;;;4.90;88.50;;;;;;4980495;28;20761;-69
2022/01/06 00:02:40;;;;;;;41.78;27.17;;;4.90;86.60;;;;;;4979321;28;20501;-68
2022/01/06 00:05:08;;;;;;;4.35;2.55;;;5.20;87.40;;;;;;4981198;28;20050;-67
2022/01/06 00:07:37;;;;;;;1.88;1.30;;;5.30;86.50;;;;;;4981531;28;20101;-69
2022/01/06 00:10:06;;;;;;;4.13;1.75;;;5.50;85.40;;;;;;4981911;28;20176;-69
2022/01/06 00:12:41;;;;;;;3.22;1.30;;;5.60;85.10;;;;;;4981322;28;20046;-69
2022/01/06 00:15:24;;;;;;;2.47;0.90;;;5.60;83.60;;;;;;4983729;28;20235;-68
2022/01/06 00:23:33;;;;;;;1.23;0.90;;;5.80;82.80;;;;;;4981419;28;20068;-69
2022/01/06 00:26:00;;;;;;;3.60;1.15;;;5.90;83.10;;;;;;4980442;28;20033;-69
2022/01/06 00:28:27;;;;;;;6.60;1.50;;;6.00;82.60;;;;;;4979382;28;20117;-68
2022/01/06 00:30:52;;;;;;;5.03;1.35;;;6.00;82.80;;;;;;4979370;28;20035;-66
2022/01/06 00:33:18;;;;;;;3.85;1.50;;;6.00;82.90;;;;;;4981520;28;20033;-67
2022/01/06 00:35:47;;;;;;;2.17;1.38;;;5.90;82.20;;;;;;4980910;28;20065;-67
2022/01/06 00:38:13;;;;;;;5.05;1.70;;;5.90;83.20;;;;;;4985312;28;20034;-67
2022/01/06 00:40:38;;;;;;;2.47;1.00;;;6.00;82.20;;;;;;4979009;28;20738;-68
2022/01/06 00:43:06;;;;;;;3.83;1.80;;;6.00;82.40;;;;;;4980740;28;20069;-69
2022/01/06 00:45:33;;;;;;;3.13;1.40;;;6.00;82.60;;;;;;4980784;28;20105;-69
2022/01/06 00:47:59;;;;;;;3.53;0.95;;;5.90;83.00;;;;;;4979002;28;20022;-68
2022/01/06 00:50:25;;;;;;;3.85;1.00;;;5.80;82.30;;;;;;4980669;28;20035;-68
2022/01/06 00:52:51;;;;;;;4.07;0.98;;;5.80;82.10;;;;;;4979393;28;20055;-68
2022/01/06 00:55:16;;;;;;;3.65;0.98;;;5.80;82.00;;;;;;4979913;28;20092;-69
2022/01/06 00:57:42;;;;;;;5.03;2.67;;;5.70;82.80;;;;;;4980125;28;20034;-68
2022/01/06 01:00:09;;;;;;;4.55;1.88;;;5.70;82.80;;;;;;4979547;28;20058;-68
2022/01/06 01:02:35;;;;;;;3.25;1.05;;;5.70;82.80;;;;;;4979081;28;20115;-68
2022/01/06 01:05:01;;;;;;;1.42;0.90;;;5.70;82.70;;;;;;4979372;28;20026;-68
2022/01/06 01:07:27;;;;;;;5.65;2.92;;;5.60;81.50;;;;;;4978151;28;20034;-68
2022/01/06 01:09:52;;;;;;;2.17;1.05;;;5.50;82.80;;;;;;4983764;28;20523;-68
2022/01/06 01:12:19;;;;;;;15.13;10.70;;;5.40;84.00;;;;;;4978926;28;20046;-68
2022/01/06 01:14:58;;;;;;;3.47;1.40;;;5.40;85.10;;;;;;4979648;28;20481;-68
2022/01/06 01:17:26;;;;;;;2.58;1.05;;;5.40;83.10;;;;;;4977021;28;20045;-68
2022/01/06 01:19:52;;;;;;;42.90;31.45;;;5.40;83.20;;;;;;4982569;28;20034;-69
2022/01/06 01:22:18;;;;;;;3.67;1.90;;;5.50;83.30;;;;;;4981436;28;20862;-68
2022/01/06 01:24:43;;;;;;;5.78;2.25;;;5.60;85.00;;;;;;4981140;28;20031;-68
2022/01/06 01:27:09;;;;;;;2.75;1.90;;;5.60;83.80;;;;;;4976384;28;20046;-68
2022/01/06 01:29:45;;;;;;;10.73;6.55;;;5.50;83.70;;;;;;4979880;28;20101;-69
2022/01/06 01:32:11;;;;;;;3.53;1.50;;;5.50;85.00;;;;;;4978814;28;20034;-68
2022/01/06 01:34:38;;;;;;;3.35;0.80;;;5.50;83.10;;;;;;4978899;28;20115;-68
2022/01/06 01:37:04;;;;;;;5.32;2.63;;;5.50;84.00;;;;;;4981567;28;20108;-67
2022/01/06 01:39:30;;;;;;;8.90;5.60;;;5.50;84.50;;;;;;4978570;28;20101;-67
2022/01/06 01:41:56;;;;;;;2.35;1.27;;;5.60;84.40;;;;;;4983924;28;20157;-69
2022/01/06 01:44:21;;;;;;;6.70;3.30;;;5.60;83.90;;;;;;4981111;28;20042;-68
2022/01/06 01:47:00;;;;;;;3.13;1.65;;;5.60;83.40;;;;;;4978551;28;20034;-69
2022/01/06 01:51:53;;;;;;;3.13;0.85;;;5.70;82.30;;;;;;4983431;28;20486;-69
2022/01/06 01:54:18;;;;;;;2.45;0.80;;;5.60;83.40;;;;;;4977968;28;20117;-70
2022/01/06 01:56:51;;;;;;;3.67;1.23;;;5.40;85.30;;;;;;4982478;28;20038;-70
2022/01/06 01:59:17;;;;;;;3.22;0.77;;;5.50;84.70;;;;;;4980626;28;20485;-70
2022/01/06 02:01:43;;;;;;;9.13;5.22;;;5.30;83.90;;;;;;4981467;28;20034;-70
2022/01/06 02:04:08;;;;;;;3.70;1.00;;;5.30;84.80;;;;;;4979870;28;20744;-70
2022/01/06 02:06:34;;;;;;;3.83;1.17;;;5.30;85.50;;;;;;5012750;28;20105;-70
2022/01/06 02:09:00;;;;;;;5.82;3.45;;;5.30;84.80;;;;;;4980959;28;20039;-69
2022/01/06 02:11:26;;;;;;;3.10;1.67;;;5.40;85.50;;;;;;4979131;28;20054;-70
2022/01/06 02:13:54;;;;;;;3.10;1.05;;;5.40;86.30;;;;;;4978361;28;20070;-70
2022/01/06 02:16:25;;;;;;;4.82;1.42;;;5.40;84.80;;;;;;4978114;28;20034;-70
2022/01/06 02:18:52;;;;;;;9.88;3.80;;;5.40;84.50;;;;;;4979889;28;20050;-70
2022/01/06 02:21:19;;;;;;;20.00;8.55;;;5.50;84.30;;;;;;4980171;28;20088;-70
2022/01/06 02:23:44;;;;;;;17.05;6.78;;;5.60;84.10;;;;;;4981456;28;20125;-70
2022/01/06 02:26:11;;;;;;;7.35;3.53;;;5.60;85.10;;;;;;4978809;28;20026;-70
2022/01/06 02:28:37;;;;;;;6.25;1.70;;;5.50;84.20;;;;;;4979820;28;20061;-70
2022/01/06 02:31:03;;;;;;;2.40;1.13;;;5.50;84.80;;;;;;4978159;28;20042;-70
2022/01/06 02:33:29;;;;;;;34.60;14.75;;;5.50;84.00;;;;;;4981289;28;20163;-70
2022/01/06 02:35:55;;;;;;;138.20;64.03;;;5.40;84.50;;;;;;4979826;28;20018;-70
2022/01/06 02:38:23;;;;;;;12.00;7.03;;;5.40;85.20;;;;;;4977803;28;20034;-70
2022/01/06 02:40:49;;;;;;;4.15;1.30;;;5.40;84.70;;;;;;4977679;28;20023;-70
2022/01/06 02:43:17;;;;;;;88.57;34.80;;;5.30;84.20;;;;;;4980882;28;20085;-70
2022/01/06 02:45:44;;;;;;;10.95;5.68;;;5.40;85.30;;;;;;4980344;28;20026;-70
2022/01/06 02:48:10;;;;;;;6.13;3.00;;;5.40;84.90;;;;;;4981286;28;20034;-70
2022/01/06 02:50:45;;;;;;;1.92;1.48;;;5.50;85.00;;;;;;4981061;28;20030;-70
2022/01/06 02:53:12;;;;;;;17.42;8.52;;;5.40;83.80;;;;;;4983104;28;20125;-70
2022/01/06 02:55:49;;;;;;;4.13;1.75;;;5.50;84.70;;;;;;4981712;28;20785;-70
2022/01/06 02:58:15;;;;;;;15.10;9.45;;;5.50;85.10;;;;;;4985017;28;20026;-70
2022/01/06 03:00:40;;;;;;;4.53;2.05;;;5.60;85.80;;;;;;4984027;28;20041;-70
2022/01/06 03:03:06;;;;;;;2.08;0.82;;;5.70;84.10;;;;;;4985013;28;20412;-70
2022/01/06 03:05:32;;;;;;;2.78;1.08;;;5.60;85.10;;;;;;4977783;28;20057;-70
2022/01/06 03:07:57;;;;;;;7.63;5.38;;;5.50;85.60;;;;;;4978399;28;20030;-70
2022/01/06 03:10:23;;;;;;;4.35;2.08;;;5.60;86.50;;;;;;4983673;28;20117;-70
2022/01/06 03:12:49;;;;;;;1.45;1.27;;;5.50;86.40;;;;;;4980127;28;20041;-70
2022/01/06 03:15:17;;;;;;;4.72;1.52;;;5.60;86.30;;;;;;4981580;28;20137;-70
2022/01/06 03:17:46;;;;;;;16.80;13.88;;;5.50;85.60;;;;;;4980319;28;20033;-70
2022/01/06 03:20:13;;;;;;;4.05;2.35;;;5.40;85.50;;;;;;4980164;28;21265;-70
2022/01/06 03:22:39;;;;;;;7.25;3.78;;;5.30;84.60;;;;;;4983361;28;20115;-70
2022/01/06 03:25:06;;;;;;;2.30;1.15;;;5.40;84.80;;;;;;4978957;28;20038;-70
2022/01/06 03:27:33;;;;;;;16.73;10.82;;;5.50;85.00;;;;;;4983589;28;20038;-70
2022/01/06 03:29:58;;;;;;;3.17;1.23;;;5.60;83.80;;;;;;4983172;28;20117;-70
2022/01/06 03:32:24;;;;;;;2.85;0.80;;;5.60;83.80;;;;;;4981717;28;20735;-70
2022/01/06 03:34:50;;;;;;;3.08;0.70;;;5.50;83.70;;;;;;4981383;28;20596;-70
2022/01/06 03:37:16;;;;;;;3.90;1.00;;;5.30;84.00;;;;;;4987916;28;20504;-69
2022/01/06 03:39:43;;;;;;;3.17;1.17;;;5.30;85.30;;;;;;4978140;28;20041;-70
2022/01/06 03:42:12;;;;;;;5.43;3.33;;;5.40;85.50;;;;;;4981450;28;20034;-70
2022/01/06 03:44:38;;;;;;;4.97;1.45;;;5.50;85.70;;;;;;4976629;28;20137;-70
2022/01/06 03:47:05;;;;;;;2.40;0.88;;;5.40;85.10;;;;;;4978973;28;20046;-70
2022/01/06 03:49:31;;;;;;;5.63;1.15;;;5.40;84.50;;;;;;4979358;28;20034;-70
2022/01/06 03:51:57;;;;;;;2.33;0.77;;;5.00;85.60;;;;;;4982099;28;20081;-70
2022/01/06 03:54:23;;;;;;;2.80;1.23;;;4.90;86.80;;;;;;4982983;28;20034;-71
2022/01/06 03:56:49;;;;;;;12.80;7.20;;;4.80;87.50;;;;;;4980900;28;20064;-70
2022/01/06 03:59:19;;;;;;;5.30;2.28;;;5.00;86.40;;;;;;4978880;28;21762;-70
2022/01/06 04:01:46;;;;;;;5.65;2.20;;;4.90;86.90;;;;;;4981937;28;20042;-69
2022/01/06 04:04:13;;;;;;;4.25;1.42;;;5.10;86.70;;;;;;4982794;28;20061;-70
2022/01/06 04:06:39;;;;;;;7.10;2.35;;;5.20;86.90;;;;;;4977824;28;20030;-70
2022/01/06 04:09:05;;;;;;;4.50;2.00;;;5.30;86.90;;;;;;4979045;28;20093;-70
2022/01/06 04:11:31;;;;;;;5.43;2.90;;;5.50;87.20;;;;;;4978948;28;20034;-70
2022/01/06 04:13:57;;;;;;;6.97;3.25;;;5.50;85.40;;;;;;4983024;28;20069;-70
2022/01/06 04:16:25;;;;;;;5.03;2.00;;;5.60;86.20;;;;;;4981147;28;20116;-70
2022/01/06 04:18:51;;;;;;;2.65;1.40;;;5.70;85.90;;;;;;4982702;28;20022;-70
2022/01/06 04:21:16;;;;;;;4.82;1.02;;;5.70;84.70;;;;;;4978264;28;20493;-70
2022/01/06 04:23:42;;;;;;;3.88;1.42;;;5.70;85.40;;;;;;4982764;28;20034;-70
2022/01/06 04:26:08;;;;;;;5.72;3.72;;;5.90;85.20;;;;;;4979747;28;20027;-70
2022/01/06 04:28:34;;;;;;;16.05;11.35;;;6.00;84.60;;;;;;4981595;28;20042;-71
2022/01/06 04:30:59;;;;;;;3.33;1.33;;;6.00;85.10;;;;;;4980048;28;20037;-70
2022/01/06 04:33:25;;;;;;;2.88;1.25;;;6.10;84.40;;;;;;4981950;28;20042;-70
2022/01/06 04:35:51;;;;;;;3.38;1.55;;;6.10;83.50;;;;;;4982276;28;20036;-70
2022/01/06 04:38:16;;;;;;;4.68;2.03;;;6.10;83.50;;;;;;4981671;28;20043;-70
2022/01/06 04:40:42;;;;;;;3.33;1.63;;;6.20;83.40;;;;;;4982395;28;20034;-70
2022/01/06 04:43:08;;;;;;;6.70;1.02;;;6.30;82.80;;;;;;4982624;28;20109;-69
2022/01/06 04:45:34;;;;;;;2.30;1.05;;;6.20;82.10;;;;;;4981228;28;20109;-70
2022/01/06 04:48:00;;;;;;;3.67;1.17;;;6.20;82.40;;;;;;4982990;28;20030;-70
2022/01/06 04:50:25;;;;;;;2.33;1.10;;;6.10;82.00;;;;;;4981217;28;20041;-70
2022/01/06 04:52:51;;;;;;;1.50;0.80;;;6.10;82.70;;;;;;4980475;28;20531;-71
2022/01/06 04:55:17;;;;;;;7.35;1.85;;;6.00;81.90;;;;;;4982519;28;20043;-70
2022/01/06 04:57:42;;;;;;;2.92;1.33;;;5.90;82.80;;;;;;4981807;28;20798;-70
2022/01/06 05:00:08;;;;;;;2.55;1.20;;;5.70;84.10;;;;;;4979639;28;20049;-69
2022/01/06 05:02:34;;;;;;;2.50;0.90;;;5.70;85.20;;;;;;4983289;28;20121;-69
2022/01/06 05:05:00;;;;;;;4.63;1.73;;;5.60;85.50;;;;;;4978751;28;20033;-69
2022/01/06 05:07:25;;;;;;;4.10;1.13;;;5.70;86.40;;;;;;4979087;28;20534;-69
2022/01/06 05:09:51;;;;;;;4.20;2.03;;;5.70;85.50;;;;;;4977981;28;20027;-69
2022/01/06 05:12:17;;;;;;;5.00;2.25;;;5.70;84.90;;;;;;4983972;28;20027;-69
2022/01/06 05:14:43;;;;;;;7.70;3.78;;;5.70;85.10;;;;;;4978737;28;20060;-69
2022/01/06 05:17:09;;;;;;;3.60;1.70;;;5.80;85.20;;;;;;4977306;28;20486;-69
2022/01/06 05:19:35;;;;;;;3.30;1.42;;;5.80;84.60;;;;;;4978210;28;20044;-69
2022/01/06 05:22:02;;;;;;;6.32;1.98;;;5.80;84.80;;;;;;4979543;28;20377;-69
2022/01/06 05:24:27;;;;;;;6.40;4.05;;;5.70;85.00;;;;;;4979270;28;20606;-69
2022/01/06 05:26:57;;;;;;;7.25;3.67;;;5.70;84.90;;;;;;4980518;28;20081;-70
2022/01/06 05:29:23;;;;;;;5.43;2.88;;;5.70;85.40;;;;;;4974596;28;20034;-69
2022/01/06 05:31:50;;;;;;;6.05;3.40;;;5.60;85.70;;;;;;4976634;28;20030;-70
2022/01/06 05:34:15;;;;;;;10.02;2.75;;;5.70;85.80;;;;;;4979403;28;20543;-69
2022/01/06 05:36:41;;;;;;;15.98;7.10;;;5.60;85.40;;;;;;4980707;28;20027;-69
2022/01/06 05:39:07;;;;;;;11.55;4.70;;;5.40;86.80;;;;;;4980330;28;20073;-69
2022/01/06 05:41:33;;;;;;;8.45;3.05;;;5.40;87.00;;;;;;4977708;28;20057;-69
2022/01/06 05:43:59;;;;;;;11.82;7.30;;;5.40;86.60;;;;;;4977009;28;20078;-69
2022/01/06 05:46:25;;;;;;;18.80;16.85;;;5.40;87.70;;;;;;4978142;28;20022;-68
2022/01/06 05:48:51;;;;;;;22.60;20.50;;;5.50;87.80;;;;;;4981855;28;20034;-69
2022/01/06 05:51:17;;;;;;;5.72;4.18;;;5.50;87.50;;;;;;4979864;28;20058;-70
2022/01/06 05:53:43;;;;;;;6.85;4.10;;;5.50;87.40;;;;;;4978321;28;20485;-69
2022/01/06 05:56:09;;;;;;;8.65;3.92;;;5.50;87.40;;;;;;4976958;28;20034;-70
2022/01/06 05:58:37;;;;;;;2.85;1.65;;;5.50;87.50;;;;;;4979045;28;20028;-69
2022/01/06 06:01:03;;;;;;;8.38;3.72;;;5.50;87.70;;;;;;4975257;28;20516;-69
2022/01/06 06:03:31;;;;;;;2.80;1.17;;;5.40;87.90;;;;;;4980492;28;20113;-69
2022/01/06 06:05:57;;;;;;;8.23;3.15;;;5.30;88.10;;;;;;4980527;28;20080;-68
2022/01/06 06:08:23;;;;;;;16.75;5.20;;;5.30;88.30;;;;;;4981243;28;20669;-68
2022/01/06 06:10:48;;;;;;;2.13;0.93;;;5.20;88.70;;;;;;4980215;28;20041;-68
2022/01/06 06:13:14;;;;;;;9.23;2.85;;;5.30;89.80;;;;;;4977679;28;20081;-68
2022/01/06 06:15:40;;;;;;;12.98;3.88;;;5.30;89.10;;;;;;4978195;28;20089;-68
2022/01/06 06:18:09;;;;;;;7.78;2.53;;;5.20;89.50;;;;;;4977493;28;20022;-68
2022/01/06 06:20:35;;;;;;;8.38;4.05;;;5.30;89.80;;;;;;4974435;28;20042;-68
2022/01/06 06:23:02;;;;;;;4.35;2.05;;;5.40;88.90;;;;;;4979081;28;20042;-68
2022/01/06 06:25:27;;;;;;;3.42;1.67;;;5.30;89.00;;;;;;4977415;28;20129;-69
2022/01/06 06:27:53;;;;;;;9.60;2.70;;;5.30;89.00;;;;;;4979080;28;20064;-68
2022/01/06 06:30:19;;;;;;;4.05;1.10;;;5.30;89.50;;;;;;4973985;28;20110;-68
2022/01/06 06:32:45;;;;;;;15.50;13.30;;;5.20;89.20;;;;;;4978611;28;20030;-68
2022/01/06 06:35:11;;;;;;;4.03;2.20;;;5.00;90.00;;;;;;4977875;28;20030;-68
2022/01/06 06:37:37;;;;;;;7.45;2.50;;;5.10;90.50;;;;;;4977959;28;20035;-68
2022/01/06 06:40:07;;;;;;;7.25;3.00;;;5.20;90.10;;;;;;4979481;28;20497;-69
2022/01/06 06:42:33;;;;;;;6.90;2.50;;;5.30;90.20;;;;;;4975616;28;20089;-69
2022/01/06 06:44:58;;;;;;;9.95;5.47;;;5.40;90.00;;;;;;4979349;28;20035;-69
2022/01/06 06:47:25;;;;;;;6.80;3.55;;;5.50;89.90;;;;;;4980104;28;20026;-69
2022/01/06 06:49:51;;;;;;;4.63;1.05;;;5.50;89.70;;;;;;4981264;28;20014;-69
2022/01/06 06:52:17;;;;;;;4.03;1.88;;;5.40;89.20;;;;;;4980275;28;20053;-69
2022/01/06 06:54:43;;;;;;;2.22;1.40;;;5.40;89.60;;;;;;4976354;28;20405;-68
2022/01/06 06:57:09;;;;;;;5.05;2.92;;;5.20;90.50;;;;;;4980084;28;20382;-68
2022/01/06 06:59:35;;;;;;;4.85;3.35;;;5.20;90.80;;;;;;4980864;28;20039;-68
2022/01/06 07:02:01;;;;;;;2.25;0.90;;;5.20;90.40;;;;;;4978680;28;20042;-70
2022/01/06 07:04:27;;;;;;;3.80;1.42;;;5.30;90.20;;;;;;4978085;28;20117;-69
2022/01/06 07:06:52;;;;;;;5.15;2.90;;;5.30;90.40;;;;;;4974410;28;20030;-69
2022/01/06 07:09:18;;;;;;;7.28;3.22;;;5.50;90.30;;;;;;4976250;28;20557;-69
2022/01/06 07:11:44;;;;;;;4.32;2.10;;;5.60;90.10;;;;;;4976018;28;20062;-68
2022/01/06 07:14:09;;;;;;;2.50;1.08;;;5.70;90.60;;;;;;4979020;28;20038;-68
2022/01/06 07:16:35;;;;;;;6.78;2.20;;;5.80;90.00;;;;;;4979310;28;20081;-69
2022/01/06 07:19:00;;;;;;;3.15;2.15;;;5.90;89.80;;;;;;4979298;28;20026;-68
2022/01/06 07:21:26;;;;;;;3.70;1.40;;;5.80;89.60;;;;;;4978946;28;20027;-68
2022/01/06 07:23:52;;;;;;;3.53;1.85;;;5.50;89.40;;;;;;4980134;28;20043;-69
2022/01/06 07:26:18;;;;;;;16.30;10.63;;;5.20;90.50;;;;;;4983009;28;21389;-69
2022/01/06 07:28:44;;;;;;;4.25;1.73;;;5.30;90.90;;;;;;4979643;28;20593;-69
2022/01/06 07:31:10;;;;;;;8.20;6.00;;;5.30;90.70;;;;;;4984999;28;20034;-68
2022/01/06 07:33:36;;;;;;;3.53;0.80;;;5.40;90.70;;;;;;4983299;28;20039;-69
2022/01/06 07:36:03;;;;;;;4.00;0.82;;;5.40;90.60;;;;;;4985187;28;20468;-69
2022/01/06 07:38:31;;;;;;;7.20;3.72;;;5.50;90.10;;;;;;4979959;28;20174;-68
2022/01/06 07:40:57;;;;;;;27.00;14.02;;;5.60;90.30;;;;;;4983280;28;20768;-69
2022/01/06 07:43:23;;;;;;;8.55;4.30;;;5.80;90.20;;;;;;4981011;28;20169;-68
2022/01/06 07:45:49;;;;;;;6.22;3.08;;;5.80;90.00;;;;;;4982767;28;20490;-68
2022/01/06 07:48:25;;;;;;;6.95;3.55;;;5.80;90.10;;;;;;4982677;28;20042;-69
2022/01/06 07:50:51;;;;;;;3.05;1.83;;;5.80;89.30;;;;;;4985299;28;20026;-68
2022/01/06 07:53:17;;;;;;;5.05;2.00;;;5.70;90.20;;;;;;4980952;28;20061;-68
2022/01/06 07:55:42;;;;;;;4.55;2.17;;;5.70;90.10;;;;;;4983492;28;20113;-68
2022/01/06 07:58:08;;;;;;;7.65;3.67;;;5.50;90.30;;;;;;4985533;28;20029;-68
2022/01/06 08:00:34;;;;;;;6.47;3.20;;;5.50;90.80;;;;;;4982878;28;20538;-69
2022/01/06 08:03:00;;;;;;;17.92;14.75;;;5.60;90.70;;;;;;4983473;28;20041;-68
2022/01/06 08:05:27;;;;;;;17.35;15.48;;;5.70;90.70;;;;;;4980687;28;20034;-68
2022/01/06 08:07:56;;;;;;;5.45;3.35;;;5.90;90.70;;;;;;4984002;28;20034;-68
2022/01/06 08:10:23;;;;;;;11.90;9.32;;;6.00;90.50;;;;;;4983840;28;20057;-69
2022/01/06 08:12:49;;;;;;;6.07;4.10;;;6.10;90.30;;;;;;4981150;28;20035;-68
2022/01/06 08:15:15;;;;;;;10.02;5.60;;;6.30;89.80;;;;;;4984772;28;20045;-68
2022/01/06 08:17:41;;;;;;;4.28;2.97;;;6.30;89.70;;;;;;4979545;28;20041;-67
2022/01/06 08:20:08;;;;;;;5.18;3.35;;;6.30;89.30;;;;;;4978449;28;20065;-69
2022/01/06 08:22:35;;;;;;;14.45;7.03;;;6.40;89.50;;;;;;4977937;28;20389;-69
2022/01/06 08:25:02;;;;;;;13.65;7.20;;;6.50;89.30;;;;;;4974097;28;20037;-68
2022/01/06 08:27:28;;;;;;;10.55;6.13;;;6.50;88.70;;;;;;4980292;28;20077;-67
2022/01/06 08:29:54;;;;;;;9.70;5.35;;;6.50;88.80;;;;;;4979548;28;20401;-68
2022/01/06 08:32:19;;;;;;;4.65;3.63;;;6.50;89.80;;;;;;4980229;28;20031;-69
2022/01/06 08:34:45;;;;;;;5.15;3.67;;;6.50;89.90;;;;;;4979868;28;20555;-69
2022/01/06 08:37:11;;;;;;;5.13;2.85;;;6.60;89.00;;;;;;4981328;28;20096;-68
2022/01/06 08:39:37;;;;;;;2.42;0.82;;;6.60;88.40;;;;;;4981899;28;20034;-69
2022/01/06 08:42:03;;;;;;;1.50;0.80;;;6.50;89.00;;;;;;4981645;28;20034;-68
2022/01/06 08:44:32;;;;;;;6.05;2.80;;;6.30;90.10;;;;;;4976745;28;20122;-69
2022/01/06 08:47:00;;;;;;;2.17;1.17;;;6.30;90.00;;;;;;4979846;28;20511;-69
2022/01/06 08:49:26;;;;;;;2.35;0.85;;;6.50;89.30;;;;;;4977833;28;20025;-69
2022/01/06 08:51:52;;;;;;;1.70;0.82;;;6.40;88.60;;;;;;4980632;28;20493;-68
2022/01/06 08:54:18;;;;;;;1.90;0.80;;;6.10;90.10;;;;;;4983153;28;20053;-69
2022/01/06 08:56:43;;;;;;;4.38;3.10;;;6.30;90.00;;;;;;4975313;28;20035;-68
2022/01/06 08:59:09;;;;;;;3.17;0.80;;;6.30;90.00;;;;;;4981523;28;20029;-68
2022/01/06 09:01:35;;;;;;;2.05;1.10;;;6.30;89.90;;;;;;4978885;28;20027;-69
2022/01/06 09:04:00;;;;;;;2.42;1.17;;;6.20;90.50;;;;;;4976717;28;20184;-69
2022/01/06 09:06:26;;;;;;;4.85;3.70;;;6.40;90.50;;;;;;4976319;28;20179;-68
2022/01/06 09:08:52;;;;;;;4.35;1.90;;;6.50;88.80;;;;;;4976282;28;20122;-68
2022/01/06 09:11:18;;;;;;;2.15;1.02;;;6.50;89.80;;;;;;4978146;28;20065;-66
2022/01/06 09:13:44;;;;;;;1.80;0.80;;;6.70;89.70;;;;;;4979328;28;20125;-69
2022/01/06 09:16:10;;;;;;;3.72;2.33;;;6.90;88.80;;;;;;4976525;28;20062;-68
2022/01/06 09:18:38;;;;;;;3.50;1.90;;;6.90;88.70;;;;;;4974423;28;20121;-69
2022/01/06 09:21:04;;;;;;;5.93;2.03;;;7.00;88.50;;;;;;4974103;28;20533;-67
2022/01/06 09:23:30;;;;;;;1.80;0.85;;;7.00;87.10;;;;;;4974557;28;20440;-68
2022/01/06 09:25:56;;;;;;;2.25;0.93;;;6.80;87.70;;;;;;4971894;28;20034;-69
2022/01/06 09:28:22;;;;;;;1.00;0.80;;;6.70;89.20;;;;;;4978938;28;20058;-68
2022/01/06 09:30:50;;;;;;;2.83;1.95;;;6.80;87.90;;;;;;4981694;28;20038;-69
2022/01/06 09:33:16;;;;;;;3.38;1.27;;;6.80;87.80;;;;;;4980334;28;20498;-68
2022/01/06 09:35:42;;;;;;;2.65;0.85;;;6.70;89.50;;;;;;4981151;28;20409;-68
2022/01/06 09:38:09;;;;;;;2.60;0.95;;;6.80;89.10;;;;;;4980313;28;20030;-68
2022/01/06 09:40:34;;;;;;;1.95;0.90;;;6.80;89.20;;;;;;4979796;28;20037;-69
2022/01/06 09:43:00;;;;;;;2.55;1.10;;;6.80;88.70;;;;;;4983660;28;20030;-67
2022/01/06 09:45:27;;;;;;;3.47;1.65;;;6.70;88.50;;;;;;4979252;28;20030;-68
2022/01/06 09:47:53;;;;;;;3.88;2.05;;;6.80;88.90;;;;;;4979522;28;20034;-69
2022/01/06 09:50:20;;;;;;;9.07;3.88;;;6.80;87.20;;;;;;4980135;28;20048;-68
2022/01/06 09:52:46;;;;;;;3.90;1.05;;;6.60;88.20;;;;;;4978947;28;20220;-67
2022/01/06 09:55:14;;;;;;;3.25;1.23;;;6.50;89.70;;;;;;4981796;28;20026;-68
2022/01/06 09:57:41;;;;;;;4.20;1.30;;;6.50;90.00;;;;;;4976969;28;20043;-67
2022/01/06 10:00:08;;;;;;;3.08;1.17;;;6.60;90.20;;;;;;4978780;28;20117;-66
2022/01/06 10:02:38;;;;;;;3.40;1.13;;;6.50;89.60;;;;;;4975503;28;20031;-68
2022/01/06 10:05:05;;;;;;;4.45;1.27;;;6.50;90.30;;;;;;4977695;28;20030;-69
2022/01/06 10:07:38;;;;;;;4.03;1.15;;;6.60;90.10;;;;;;4976057;28;20022;-68
2022/01/06 10:10:09;;;;;;;5.72;2.65;;;6.50;89.90;;;;;;4980491;28;20045;-69
2022/01/06 10:12:38;;;;;;;5.40;3.67;;;6.40;90.30;;;;;;4982181;28;20033;-68
2022/01/06 10:15:17;;;;;;;2.35;0.98;;;6.40;90.50;;;;;;4982254;28;20070;-68
2022/01/06 10:17:43;;;;;;;3.00;1.02;;;6.30;90.90;;;;;;4979455;28;20070;-67
2022/01/06 10:20:14;;;;;;;1.08;0.82;;;6.10;90.70;;;;;;4981901;28;20053;-67
2022/01/06 10:22:49;;;;;;;3.83;0.95;;;5.90;91.00;;;;;;4980958;28;20031;-67
2022/01/06 10:25:15;;;;;;;3.35;1.70;;;5.90;91.20;;;;;;4978144;28;20564;-67
2022/01/06 10:27:41;;;;;;;0.98;0.93;;;5.90;91.30;;;;;;4977188;28;20062;-67
2022/01/06 10:30:09;;;;;;;4.35;1.42;;;5.80;91.50;;;;;;4975336;28;21210;-68
2022/01/06 10:32:38;;;;;;;1.05;0.70;;;5.90;91.90;;;;;;4978775;28;20031;-68
2022/01/06 10:35:05;;;;;;;2.28;0.70;;;5.80;91.20;;;;;;4975293;28;20100;-67
2022/01/06 10:37:42;;;;;;;2.90;1.10;;;5.80;91.90;;;;;;4975324;28;20119;-68
2022/01/06 10:40:16;;;;;;;2.80;1.10;;;5.70;92.30;;;;;;4978101;28;20086;-69
2022/01/06 10:42:46;;;;;;;3.05;1.23;;;5.70;92.10;;;;;;4982820;28;20113;-69
2022/01/06 10:45:18;;;;;;;3.60;1.25;;;5.60;92.20;;;;;;4985137;28;20064;-69
2022/01/06 10:47:46;;;;;;;1.83;0.90;;;5.50;92.50;;;;;;4981032;28;20031;-69
2022/01/06 10:50:16;;;;;;;2.85;0.90;;;5.60;92.60;;;;;;4980116;28;20244;-69
2022/01/06 10:52:47;;;;;;;2.90;1.02;;;5.60;92.80;;;;;;4984258;28;20572;-68
2022/01/06 10:55:15;;;;;;;0.98;0.63;;;5.60;92.60;;;;;;4981583;28;20503;-69
2022/01/06 10:58:06;;;;;;;3.45;1.17;;;5.50;92.30;;;;;;4978714;28;20081;-68
2022/01/06 11:00:43;;;;;;;2.92;1.40;;;5.50;93.20;;;;;;4985823;28;20029;-69
2022/01/06 11:03:20;;;;;;;5.60;1.08;;;5.50;92.90;;;;;;4983187;28;20559;-69
2022/01/06 11:05:51;;;;;;;3.33;1.10;;;5.50;92.80;;;;;;5010939;28;20144;-69
2022/01/06 11:08:27;;;;;;;4.60;1.33;;;5.50;93.10;;;;;;4977884;28;20498;-69
2022/01/06 11:13:45;;;;;;;;;;;5.40;93.50;;;;;;4981336;28;20054;-68
2022/01/06 11:16:12;;;;;;;5.20;1.15;;;5.50;93.40;;;;;;4981653;28;20277;-69
2022/01/06 11:18:40;;;;;;;6.43;1.33;;;5.60;93.00;;;;;;4983453;28;20042;-69
2022/01/06 11:21:15;;;;;;;2.88;0.85;;;5.50;92.70;;;;;;4980264;28;20263;-69
2022/01/06 11:23:42;;;;;;;2.30;1.10;;;5.50;93.00;;;;;;4983982;28;20449;-68
2022/01/06 11:26:13;;;;;;;1.90;1.30;;;5.50;93.20;;;;;;4985032;28;20042;-69
2022/01/06 11:28:44;;;;;;;2.15;1.10;;;5.60;93.20;;;;;;4983334;28;20031;-69
2022/01/06 11:31:15;;;;;;;2.30;0.80;;;5.60;93.20;;;;;;4985695;28;20089;-69
2022/01/06 11:33:42;;;;;;;2.83;1.05;;;5.70;93.00;;;;;;4982523;28;20295;-69
2022/01/06 11:36:30;;;;;;;3.60;1.08;;;5.60;92.70;;;;;;4981801;28;20413;-69
2022/01/06 11:38:56;;;;;;;4.10;1.00;;;5.70;93.10;;;;;;4983415;28;20065;-69
2022/01/06 11:41:37;;;;;;;1.50;0.85;;;5.60;92.60;;;;;;4985010;28;20045;-69
2022/01/06 11:44:22;;;;;;;4.25;1.30;;;5.70;92.80;;;;;;4983992;28;20145;-69
2022/01/06 11:46:53;;;;;;;1.75;0.77;;;5.90;92.90;;;;;;4981302;28;20034;-69
2022/01/06 11:49:40;;;;;;;2.38;0.77;;;5.90;91.90;;;;;;4984079;28;20038;-69
2022/01/06 11:52:07;;;;;;;1.98;0.73;;;5.80;92.30;;;;;;4984116;28;20051;-68
2022/01/06 11:54:33;;;;;;;3.90;1.25;;;5.80;92.10;;;;;;4984603;28;20042;-69
2022/01/06 11:56:59;;;;;;;1.13;0.60;;;5.70;92.40;;;;;;4986316;28;20033;-68
2022/01/06 11:59:29;;;;;;;3.83;0.77;;;5.70;92.50;;;;;;4985444;28;20030;-68
2022/01/06 12:01:55;;;;;;;4.28;1.02;;;5.90;92.30;;;;;;4984330;28;20550;-68
2022/01/06 12:04:25;;;;;;;2.20;0.82;;;5.90;92.00;;;;;;4985632;28;20046;-69
2022/01/06 12:07:01;;;;;;;2.42;0.75;;;5.90;92.30;;;;;;4982278;28;20058;-68
2022/01/06 12:09:27;;;;;;;2.95;0.90;;;5.90;92.00;;;;;;4983950;28;20109;-68
2022/01/06 12:12:19;;;;;;;1.60;0.65;;;6.00;91.90;;;;;;4984410;28;20037;-68
2022/01/06 12:14:45;;;;;;;2.65;0.75;;;6.00;91.80;;;;;;4978697;28;20092;-68
2022/01/06 12:17:11;;;;;;;2.63;1.17;;;6.10;91.80;;;;;;4980678;28;20038;-68
2022/01/06 12:19:38;;;;;;;1.25;0.70;;;6.00;91.70;;;;;;4980686;28;20092;-69
2022/01/06 12:22:09;;;;;;;1.67;0.57;;;6.10;91.90;;;;;;4981953;28;20035;-69
2022/01/06 12:24:34;;;;;;;2.43;1.10;;;6.10;91.90;;;;;;4985767;28;20034;-69
2022/01/06 12:27:04;;;;;;;1.38;0.70;;;6.20;91.70;;;;;;4980872;28;20033;-69
2022/01/06 12:29:36;;;;;;;1.67;0.88;;;6.20;91.60;;;;;;4980076;28;20030;-69
2022/01/06 12:32:11;;;;;;;2.47;1.00;;;6.30;91.60;;;;;;4982838;28;20503;-69
2022/01/06 12:34:37;;;;;;;2.75;1.05;;;6.30;91.40;;;;;;4984400;28;20034;-69
2022/01/06 12:37:03;;;;;;;2.10;0.93;;;6.30;91.20;;;;;;4983717;28;20217;-69
2022/01/06 12:39:29;;;;;;;2.05;0.75;;;6.20;91.10;;;;;;4979632;28;20034;-69
2022/01/06 12:41:55;;;;;;;4.22;0.90;;;6.20;91.20;;;;;;4982178;28;20512;-69
2022/01/06 12:44:27;;;;;;;4.15;1.10;;;6.10;90.70;;;;;;4980197;28;20073;-69
2022/01/06 12:46:53;;;;;;;3.72;0.60;;;6.00;90.90;;;;;;4979807;28;20030;-69
2022/01/06 12:49:23;;;;;;;3.10;0.85;;;6.10;90.50;;;;;;4982828;28;20515;-69
2022/01/06 12:51:50;;;;;;;2.33;0.95;;;6.00;91.10;;;;;;4985276;28;20047;-69
2022/01/06 12:54:18;;;;;;;1.67;0.82;;;6.00;91.30;;;;;;4981903;28;20034;-69
2022/01/06 12:57:06;;;;;;;3.70;0.80;;;6.00;91.50;;;;;;4984617;28;20039;-69
2022/01/06 12:59:37;;;;;;;2.40;0.93;;;6.10;91.10;;;;;;4985016;28;20030;-69
2022/01/06 13:02:03;;;;;;;2.83;0.88;;;6.10;90.70;;;;;;4979500;28;20158;-69
2022/01/06 13:04:35;;;;;;;1.27;0.45;;;6.00;91.00;;;;;;4981919;28;20027;-69
2022/01/06 13:07:04;;;;;;;2.35;0.90;;;6.10;91.00;;;;;;4985629;28;20505;-69